Details From WAOO - Banjarmasin Syamsudin Noor
To WARR - Surabaya Juanda
Flight Number -
Tags generated
Created
Modified
Stats Distance 264 nm / 490 km
Max Altitude 34,700 ft / 10,577 m
Waypoints 4
Social Downloads 2
Likes 0
Share VATSIM

Download

Looking for another format? Having issues loading an existing format? Contact us
Advertisement - Login to hide

Notes

Basic altitude profile: - Ascent Rate: 2500ft/min - Ascent Speed: 250kts - Cruise Altitude: 19000ft - Cruise Speed: 420kts - Descent Rate: 1500ft/min - Descent Speed: 250kts Options: - Use NATs: yes - Use PACOTS: yes - Use low airways: yes - Use high airways: yes

Route

WAOO IKAPI W31 RAMPY WARR

ID Type Via Altitude (ft/m) Position (lat/lon) Dist (leg/tot) Name
O WAOO APT - 0 / 0 -3.44235 / 114.76255 - / 0 nm Banjarmasin Syamsudin Noor
IKAPI FIX - 34,700 / 10,577 -4.95602 / 113.97689 102 / 102 nm
RAMPY FIX W31 (AWY-LO) 16,100 / 4,907 -6.25016 / 113.34601 86 / 188 nm
O WARR APT - 0 / 0 -7.37983 / 112.78686 75 / 264 nm Surabaya Juanda

Altitude Profile

Advertisement - Login to hide

Weather


0- 5 10 15 20 25 30 35+ Temperature / °C

Clouds and Precipitation
Forecast for 2018-09-20 18:00 UTC. Updated 4 hours ago

Ground ~20,000 ft ~40,000 ft Winds

WAOO

Details ICAO WAOO (BDJ)
Name Banjarmasin Syamsudin Noor
Region Indonesia
Timezone Asia/Makassar (UTC+8.0)
Stats Elevation 65 ft / 20 m (AMSL)
Location -3.442070° 114.763000°
Runways 1
Magnetic Variation 0.663° E

METAR

WAOO 201900Z AUTO 10002KT 2400 BR ////// 23/21 Q1009

Decode

TAF

Not found

Departure Runways

ID Width Length Bearing (true/mag) Surface Threshold Overrun Markings Lighting
10 148 ft / 45 m 8,175 ft / 2,492 m 99.20° / 98.53° ASPHALT 0 ft / 0 m 197 ft / 60 m PREC-APP EDGE THRESHOLD ALSF-I REIL-OMNI
28 148 ft / 45 m 8,175 ft / 2,492 m 279.19° / 278.53° ASPHALT 0 ft / 0 m 197 ft / 60 m PREC-APP EDGE THRESHOLD ALSF-I REIL-OMNI

WARR

Details ICAO WARR (SUB)
Name Juanda International Airport
Region Indonesia
Timezone Asia/Jakarta (UTC+7.0)
Stats Elevation 11 ft / 3 m (AMSL)
Location -7.379830° 112.787000°
Runways 1
Magnetic Variation 0.908° E

METAR

WARR 201900Z 26006KT 5000 HZ FEW020 26/22 Q1010 NOSIG

Decode

TAF

Not found

Destination Runways

ID Width Length Bearing (true/mag) Surface Threshold Overrun Markings Lighting
10 148 ft / 45 m 9,852 ft / 3,003 m 99.25° / 98.34° ASPHALT 0 ft / 0 m 312 ft / 95 m PREC-APP CENTERLINE EDGE THRESHOLD MALSF
28 148 ft / 45 m 9,852 ft / 3,003 m 279.24° / 278.33° ASPHALT 0 ft / 0 m 292 ft / 89 m PREC-APP CENTERLINE EDGE THRESHOLD MALSF

Approach Navaids

Runway Type Ident Frequency Range Bearing (true/mag) Slope Elevation
10 LOC-ILS ISBY 110.10 MHz 18 nm / 33 km 99.30° / 98.39 ° - 8 ft / 2 m (AMSL)
10 OM OM - - 99.32° / 98.41 ° - 9 ft / 3 m (AMSL)
10 GS ISBY 110.10 MHz 10 nm / 19 km 99.63° / 98.73 ° 3.00° 9 ft / 3 m (AMSL)
10 MM MM - - 99.32° / 98.41 ° - 9 ft / 3 m (AMSL)
10 DME ISBY 110.10 MHz 18 nm / 33 km - - 8 ft / 2 m (AMSL)

Popular Alternatives